createdAt,value
2023-05-04T00:01:52.240Z,8.90
2023-05-04T00:06:54.540Z,8.80
2023-05-04T00:11:58.327Z,8.80
2023-05-04T00:17:00.501Z,8.80
2023-05-04T00:22:03.095Z,8.80
2023-05-04T00:27:06.780Z,8.80
2023-05-04T00:32:09.762Z,8.70
2023-05-04T00:37:11.968Z,8.70
2023-05-04T00:42:15.788Z,8.70
2023-05-04T00:47:18.405Z,8.70
2023-05-04T00:52:21.418Z,8.70
2023-05-04T00:57:25.540Z,8.70
2023-05-04T01:02:27.857Z,8.70
2023-05-04T01:07:38.845Z,8.70
2023-05-04T01:12:49.194Z,8.60
2023-05-04T01:17:51.468Z,8.70
2023-05-04T01:22:55.387Z,8.70
2023-05-04T01:28:06.673Z,8.60
2023-05-04T01:33:09.594Z,8.60
2023-05-04T01:38:13.399Z,8.60
2023-05-04T01:43:15.645Z,8.50
2023-05-04T01:48:17.925Z,8.50
2023-05-04T01:53:21.572Z,8.50
2023-05-04T01:58:23.806Z,8.40
2023-05-04T02:03:26.344Z,8.40
2023-05-04T02:08:30.131Z,8.40
2023-05-04T02:13:32.479Z,8.40
2023-05-04T02:18:34.657Z,8.30
2023-05-04T02:23:38.259Z,8.20
2023-05-04T02:28:40.487Z,8.20
2023-05-04T02:33:42.695Z,8.20
2023-05-04T02:38:46.355Z,8.10
2023-05-04T02:43:48.671Z,8.10
2023-05-04T02:48:50.911Z,8.00
2023-05-04T02:53:54.722Z,8.00
2023-05-04T02:58:57.000Z,7.90
2023-05-04T03:03:59.315Z,8.00
2023-05-04T03:09:03.213Z,8.00
2023-05-04T03:14:05.592Z,8.00
2023-05-04T03:19:07.822Z,8.00
2023-05-04T03:24:11.622Z,8.00
2023-05-04T03:29:13.903Z,8.10
2023-05-04T03:34:16.055Z,8.10
2023-05-04T03:39:19.809Z,8.10
2023-05-04T03:44:22.040Z,8.10
2023-05-04T03:49:24.280Z,8.10
2023-05-04T03:54:28.040Z,8.10
2023-05-04T03:59:30.418Z,8.10
2023-05-04T04:04:32.790Z,8.20
2023-05-04T04:09:36.562Z,8.20
2023-05-04T04:14:38.812Z,8.20
2023-05-04T04:19:41.098Z,8.20
2023-05-04T04:24:44.812Z,8.30
2023-05-04T04:29:47.060Z,8.30
2023-05-04T04:34:49.288Z,8.40
2023-05-04T04:39:52.907Z,8.40
2023-05-04T04:44:55.087Z,8.50
2023-05-04T04:49:57.426Z,8.70
2023-05-04T04:55:01.310Z,8.80
2023-05-04T05:00:04.167Z,8.90
2023-05-04T05:05:07.594Z,8.90
2023-05-04T05:10:11.803Z,9.10
2023-05-04T05:15:14.179Z,9.20
2023-05-04T05:20:16.577Z,9.30
2023-05-04T05:25:20.400Z,9.40
2023-05-04T05:30:22.697Z,9.50
2023-05-04T05:35:25.097Z,9.50
2023-05-04T05:40:28.998Z,9.60
2023-05-04T05:45:31.521Z,9.70
2023-05-04T05:50:35.006Z,9.80
2023-05-04T05:55:38.683Z,9.80
2023-05-04T06:00:41.003Z,9.90
2023-05-04T06:05:43.294Z,10.00
2023-05-04T06:10:46.977Z,10.20
2023-05-04T06:15:52.618Z,10.50
2023-05-04T06:20:58.764Z,10.80
2023-05-04T06:26:02.754Z,11.20
2023-05-04T06:31:05.302Z,11.70
2023-05-04T06:36:07.882Z,12.10
2023-05-04T06:41:11.696Z,12.40
2023-05-04T06:46:14.026Z,12.60
2023-05-04T06:51:16.405Z,12.80
2023-05-04T06:56:20.004Z,13.10
2023-05-04T07:01:23.659Z,13.30
2023-05-04T07:06:26.147Z,13.50
2023-05-04T07:11:29.861Z,13.80
2023-05-04T07:16:32.147Z,14.00
2023-05-04T07:21:34.406Z,14.10
2023-05-04T07:26:38.319Z,14.30
2023-05-04T07:31:40.668Z,14.50
2023-05-04T07:36:43.599Z,14.70
2023-05-04T07:41:48.806Z,15.00
2023-05-04T07:46:51.939Z,15.40
2023-05-04T07:51:54.512Z,15.90
2023-05-04T07:56:58.392Z,16.50
2023-05-04T08:02:00.925Z,17.20
2023-05-04T08:07:03.326Z,17.60
2023-05-04T08:12:07.451Z,17.80
2023-05-04T08:17:09.776Z,17.90
2023-05-04T08:22:12.149Z,18.10
2023-05-04T08:27:15.795Z,18.60
2023-05-04T08:32:18.102Z,19.30
2023-05-04T08:37:20.298Z,19.90
2023-05-04T08:42:31.429Z,20.40
2023-05-04T08:47:33.784Z,20.80
2023-05-04T08:52:36.846Z,21.00
2023-05-04T08:57:43.999Z,21.10
2023-05-04T09:02:47.474Z,21.10
2023-05-04T09:07:49.848Z,21.20
2023-05-04T09:12:54.159Z,21.40
2023-05-04T09:17:58.313Z,21.40
2023-05-04T09:23:05.197Z,21.40
2023-05-04T09:28:08.942Z,21.30
2023-05-04T09:33:11.511Z,21.10
2023-05-04T09:38:25.313Z,21.20
2023-05-04T09:43:38.038Z,21.20
2023-05-04T09:48:51.645Z,21.20
2023-05-04T09:53:54.040Z,21.40
2023-05-04T09:58:58.482Z,21.60
2023-05-04T10:04:01.896Z,21.90
2023-05-04T10:09:04.327Z,21.60
2023-05-04T10:14:08.135Z,21.30
2023-05-04T10:19:31.902Z,20.70
2023-05-04T10:24:57.313Z,20.40
2023-05-04T10:30:01.363Z,20.30
2023-05-04T10:35:08.570Z,20.20
2023-05-04T10:40:11.638Z,20.20
2023-05-04T10:45:15.384Z,20.00
2023-05-04T10:50:17.702Z,19.90
2023-05-04T10:55:21.291Z,19.80
2023-05-04T11:00:37.106Z,19.60
2023-05-04T11:05:43.323Z,19.60
2023-05-04T11:10:47.479Z,19.80
2023-05-04T11:15:51.542Z,19.80
2023-05-04T11:20:54.207Z,19.60
2023-05-04T11:25:57.055Z,19.30
2023-05-04T11:31:00.767Z,19.00
2023-05-04T11:36:06.100Z,18.90
2023-05-04T11:41:09.077Z,18.90
2023-05-04T11:46:13.770Z,18.80
2023-05-04T11:51:16.124Z,18.70
2023-05-04T11:56:18.427Z,18.80
2023-05-04T12:01:22.208Z,18.90
2023-05-04T12:06:33.867Z,18.90
2023-05-04T12:11:36.512Z,19.10
2023-05-04T12:16:40.398Z,19.00
2023-05-04T12:21:50.469Z,19.10
2023-05-04T12:26:52.885Z,19.10
2023-05-04T12:31:56.700Z,19.10
2023-05-04T12:36:58.983Z,19.10
2023-05-04T12:42:01.284Z,18.90
2023-05-04T12:47:05.074Z,18.80
2023-05-04T12:52:07.384Z,18.80
2023-05-04T12:57:09.641Z,18.80
2023-05-04T13:02:13.379Z,18.80
2023-05-04T13:07:15.672Z,18.80
2023-05-04T13:12:18.153Z,18.90
2023-05-04T13:17:22.430Z,19.10
2023-05-04T13:22:24.978Z,19.40
2023-05-04T13:27:27.274Z,19.40
2023-05-04T13:32:31.662Z,19.50
2023-05-04T13:37:33.995Z,19.60
2023-05-04T13:42:37.445Z,19.40
2023-05-04T13:47:41.698Z,19.30
2023-05-04T13:52:44.159Z,19.20
2023-05-04T13:57:51.523Z,19.20
2023-05-04T14:02:56.187Z,19.30
2023-05-04T14:07:58.681Z,19.50
2023-05-04T14:13:03.298Z,19.70
2023-05-04T14:18:12.995Z,19.70
2023-05-04T14:23:15.978Z,19.80
2023-05-04T14:28:21.073Z,19.70
2023-05-04T14:33:25.115Z,19.70
2023-05-04T14:38:28.126Z,19.80
2023-05-04T14:43:30.826Z,19.90
2023-05-04T14:48:35.270Z,19.90
2023-05-04T14:53:39.256Z,19.80
2023-05-04T14:58:42.207Z,19.70
2023-05-04T15:03:47.047Z,19.80
2023-05-04T15:08:49.786Z,19.70
2023-05-04T15:13:51.946Z,19.80
2023-05-04T15:18:56.078Z,19.90
2023-05-04T15:23:58.466Z,19.90
2023-05-04T15:29:00.797Z,19.80
2023-05-04T15:34:04.666Z,19.80
2023-05-04T15:39:06.964Z,19.70
2023-05-04T15:44:09.231Z,19.70
2023-05-04T15:49:13.051Z,19.60
2023-05-04T15:54:15.381Z,19.50
2023-05-04T15:59:17.792Z,19.40
2023-05-04T16:04:21.562Z,19.40
2023-05-04T16:09:23.853Z,19.30
2023-05-04T16:14:26.157Z,19.30
2023-05-04T16:19:29.991Z,19.20
2023-05-04T16:24:32.280Z,19.30
2023-05-04T16:29:34.508Z,19.20
2023-05-04T16:34:38.466Z,19.20
2023-05-04T16:39:40.849Z,19.10
2023-05-04T16:44:43.050Z,19.10
2023-05-04T16:49:46.788Z,19.10
2023-05-04T16:54:49.009Z,19.20
2023-05-04T16:59:51.352Z,19.30
2023-05-04T17:04:55.149Z,19.30
2023-05-04T17:09:57.508Z,19.30
2023-05-04T17:14:59.728Z,19.30
2023-05-04T17:20:03.745Z,19.20
2023-05-04T17:25:06.865Z,19.10
2023-05-04T17:30:10.233Z,19.00
2023-05-04T17:35:23.924Z,18.90
2023-05-04T17:40:28.116Z,18.80
2023-05-04T17:45:31.114Z,18.80
2023-05-04T17:50:34.796Z,18.80
2023-05-04T17:55:37.123Z,18.80
2023-05-04T18:00:39.387Z,18.70
2023-05-04T18:05:43.256Z,18.60
2023-05-04T18:10:45.514Z,18.50
2023-05-04T18:15:47.902Z,18.40
2023-05-04T18:20:51.696Z,18.20
2023-05-04T18:25:54.024Z,18.00
2023-05-04T18:30:58.083Z,17.80
2023-05-04T18:36:01.832Z,17.70
2023-05-04T18:41:04.597Z,17.50
2023-05-04T18:46:07.791Z,17.40
2023-05-04T18:51:11.918Z,17.20
2023-05-04T18:56:14.185Z,17.10
2023-05-04T19:01:16.421Z,16.90
2023-05-04T19:06:20.139Z,16.80
2023-05-04T19:11:22.371Z,16.60
2023-05-04T19:16:24.605Z,16.50
2023-05-04T19:21:29.312Z,16.30
2023-05-04T19:26:31.500Z,16.20
2023-05-04T19:31:34.224Z,16.10
2023-05-04T19:36:39.210Z,16.00
2023-05-04T19:41:42.151Z,15.80
2023-05-04T19:46:44.541Z,15.70
2023-05-04T19:51:48.471Z,15.60
2023-05-04T19:56:51.553Z,15.50
2023-05-04T20:01:54.340Z,15.40
2023-05-04T20:07:02.524Z,15.30
2023-05-04T20:12:04.884Z,15.30
2023-05-04T20:17:08.384Z,15.10
2023-05-04T20:22:12.211Z,15.10
2023-05-04T20:27:14.424Z,14.90
2023-05-04T20:32:16.720Z,14.80
2023-05-04T20:37:20.344Z,14.60
2023-05-04T20:42:23.065Z,14.50
2023-05-04T20:47:26.020Z,14.50
2023-05-04T20:52:29.655Z,14.30
2023-05-04T20:57:31.936Z,14.20
2023-05-04T21:02:34.462Z,14.10
2023-05-04T21:07:38.155Z,14.00
2023-05-04T21:12:40.341Z,13.80
2023-05-04T21:17:42.725Z,13.80
2023-05-04T21:22:46.538Z,13.70
2023-05-04T21:27:48.768Z,13.60
2023-05-04T21:32:51.044Z,13.50
2023-05-04T21:37:54.763Z,13.40
2023-05-04T21:42:57.058Z,13.30
2023-05-04T21:47:59.241Z,13.30
2023-05-04T21:53:02.963Z,13.20
2023-05-04T21:58:05.195Z,13.10
2023-05-04T22:03:07.389Z,13.00
2023-05-04T22:08:11.037Z,13.00
2023-05-04T22:13:13.423Z,12.90
2023-05-04T22:18:15.813Z,12.90
2023-05-04T22:23:19.431Z,12.80
2023-05-04T22:28:21.680Z,12.70
2023-05-04T22:33:23.923Z,12.70
2023-05-04T22:38:27.602Z,12.60
2023-05-04T22:43:29.908Z,12.50
2023-05-04T22:48:32.233Z,12.50
2023-05-04T22:53:35.887Z,12.40
2023-05-04T22:58:38.130Z,12.40
2023-05-04T23:03:43.523Z,12.30
2023-05-04T23:08:47.594Z,12.30
2023-05-04T23:13:49.867Z,12.30
2023-05-04T23:18:52.154Z,12.20
2023-05-04T23:23:55.877Z,12.20
2023-05-04T23:28:58.172Z,12.20
2023-05-04T23:34:00.422Z,12.20
2023-05-04T23:39:04.224Z,12.10
2023-05-04T23:44:06.522Z,12.20
2023-05-04T23:49:08.752Z,12.10
2023-05-04T23:54:12.574Z,12.10
2023-05-04T23:59:14.821Z,12.10
